Time;durP1;ratioP1;P1;durP2;ratioP2;P2;SDS_P1;SDS_P2;PMS_P1;PMS_P2;Temp;Humidity;BMP_temperature;BMP_pressure;BME280_temperature;BME280_humidity;BME280_pressure;Samples;Min_cycle;Max_cycle;Signal;HPM_P1;HPM_P2
2022/09/15 00:01:43;;;;;;;;;;;19.40;63.10;;;;;;5046239;28;86540;-40
2022/09/15 00:04:09;;;;;;;;;;;19.40;63.10;;;;;;5043011;27;87033;-41
2022/09/15 00:06:34;;;;;;;;;;;19.40;63.60;;;;;;5043006;28;88206;-40
2022/09/15 00:09:00;;;;;;;;;;;19.40;63.00;;;;;;5042391;28;88008;-41
2022/09/15 00:11:30;;;;;;;;;;;19.40;63.10;;;;;;5042989;27;88117;-41
2022/09/15 00:13:57;;;;;;;;;;;19.40;63.00;;;;;;5042896;27;88024;-41
2022/09/15 00:16:23;;;;;;;;;;;19.40;63.00;;;;;;5042962;27;87078;-40
2022/09/15 00:18:49;;;;;;;;;;;19.40;62.90;;;;;;5043106;28;87860;-41
2022/09/15 00:21:16;;;;;;;;;;;19.40;63.50;;;;;;5045830;28;88289;-41
2022/09/15 00:23:41;;;;;;;;;;;19.40;62.90;;;;;;5043094;27;87760;-41
2022/09/15 00:26:08;;;;;;;;;;;19.40;62.90;;;;;;5043365;28;87604;-41
2022/09/15 00:28:34;;;;;;;;;;;19.40;63.00;;;;;;5043142;27;87088;-40
2022/09/15 00:31:03;;;;;;;;;;;19.40;62.90;;;;;;5043041;28;87555;-41
2022/09/15 00:33:28;;;;;;;;;;;19.40;63.00;;;;;;5041795;27;89538;-41
2022/09/15 00:35:54;;;;;;;;;;;19.40;63.00;;;;;;5043153;28;87354;-41
2022/09/15 00:38:20;;;;;;;;;;;19.40;62.90;;;;;;5043503;28;88080;-41
2022/09/15 00:40:47;;;;;;;;;;;19.40;62.90;;;;;;5042512;27;88550;-41
2022/09/15 00:43:13;;;;;;;;;;;19.40;63.00;;;;;;5045880;27;87021;-41
2022/09/15 00:45:39;;;;;;;;;;;19.30;62.90;;;;;;5042411;28;87794;-41
2022/09/15 00:48:05;;;;;;;;;;;19.40;63.00;;;;;;5042557;27;87108;-40
2022/09/15 00:50:31;;;;;;;;;;;19.30;62.90;;;;;;5043550;27;87489;-41
2022/09/15 00:52:59;;;;;;;;;;;19.30;62.90;;;;;;5042159;27;89835;-41
2022/09/15 00:55:34;;;;;;;;;;;19.30;62.90;;;;;;5042827;27;87045;-40
2022/09/15 00:58:10;;;;;;;;;;;19.30;62.90;;;;;;5041997;27;88672;-40
2022/09/15 01:00:38;;;;;;;;;;;19.30;62.90;;;;;;5042539;27;87963;-41
2022/09/15 01:03:04;;;;;;;;;;;19.30;62.90;;;;;;5042414;27;87479;-40
2022/09/15 01:05:31;;;;;;;;;;;19.30;63.00;;;;;;5045455;28;87602;-41
2022/09/15 01:08:13;;;;;;;;;;;19.30;63.00;;;;;;5042068;28;87514;-41
2022/09/15 01:10:40;;;;;;;;;;;19.30;63.00;;;;;;5042520;27;87477;-40
2022/09/15 01:13:08;;;;;;;;;;;19.30;63.00;;;;;;5041906;27;89419;-41
2022/09/15 01:15:47;;;;;;;;;;;19.30;63.10;;;;;;5044042;27;86323;-41
2022/09/15 01:18:21;;;;;;;;;;;19.30;63.10;;;;;;5046422;28;86766;-41
2022/09/15 01:20:58;;;;;;;;;;;19.20;63.10;;;;;;5045540;27;87980;-41
2022/09/15 01:23:33;;;;;;;;;;;19.20;63.00;;;;;;5045425;28;87967;-41
2022/09/15 01:26:27;;;;;;;;;;;19.30;63.10;;;;;;5046323;28;88377;-41
2022/09/15 01:28:56;;;;;;;;;;;19.20;63.10;;;;;;5009898;27;89514;-40
2022/09/15 01:31:28;;;;;;;;;;;19.30;63.10;;;;;;5046127;28;87403;-41
2022/09/15 01:34:08;;;;;;;;;;;19.20;63.00;;;;;;5045532;27;87843;-41
2022/09/15 01:36:43;;;;;;;;;;;19.20;63.10;;;;;;5046165;27;87176;-41
2022/09/15 01:39:14;;;;;;;;;;;19.20;63.10;;;;;;5045743;28;87470;-41
2022/09/15 01:41:51;;;;;;;;;;;19.20;63.10;;;;;;5045948;27;87318;-40
2022/09/15 01:44:20;;;;;;;;;;;19.20;63.10;;;;;;5045829;27;87039;-41
2022/09/15 01:46:48;;;;;;;;;;;19.20;63.10;;;;;;5045669;27;87317;-41
2022/09/15 01:49:16;;;;;;;;;;;19.20;63.10;;;;;;5044807;28;89169;-41
2022/09/15 01:51:42;;;;;;;;;;;19.20;63.10;;;;;;5048590;27;86990;-41
2022/09/15 01:54:09;;;;;;;;;;;19.20;63.10;;;;;;5045171;27;88550;-40
2022/09/15 01:56:35;;;;;;;;;;;19.20;63.10;;;;;;5045607;28;87073;-40
2022/09/15 01:59:01;;;;;;;;;;;19.10;63.10;;;;;;5045564;27;86793;-41
2022/09/15 02:01:42;;;;;;;;;;;19.10;63.10;;;;;;5044886;27;89178;-41
2022/09/15 02:04:21;;;;;;;;;;;19.20;63.20;;;;;;5045758;27;87436;-41
2022/09/15 02:06:48;;;;;;;;;;;19.20;63.10;;;;;;5045788;27;87335;-41
2022/09/15 02:09:19;;;;;;;;;;;19.10;63.10;;;;;;5043344;28;89505;-41
2022/09/15 02:12:02;;;;;;;;;;;19.10;63.10;;;;;;5043875;28;87102;-41
2022/09/15 02:14:46;;;;;;;;;;;19.10;63.10;;;;;;5046277;28;87921;-41
2022/09/15 02:17:14;;;;;;;;;;;19.10;63.10;;;;;;5043970;27;88346;-41
2022/09/15 02:19:43;;;;;;;;;;;19.10;63.10;;;;;;5043996;27;87212;-41
2022/09/15 02:22:09;;;;;;;;;;;19.10;63.10;;;;;;5043567;27;88141;-41
2022/09/15 02:24:43;;;;;;;;;;;19.10;63.10;;;;;;5043947;27;87006;-41
2022/09/15 02:27:11;;;;;;;;;;;19.10;63.10;;;;;;5043502;27;87523;-41
2022/09/15 02:29:37;;;;;;;;;;;19.10;63.20;;;;;;5043496;27;89278;-41
2022/09/15 02:32:05;;;;;;;;;;;19.10;63.20;;;;;;5044490;28;86258;-41
2022/09/15 02:34:33;;;;;;;;;;;19.10;63.20;;;;;;5045952;27;87405;-41
2022/09/15 02:36:59;;;;;;;;;;;19.10;63.20;;;;;;5043644;28;87051;-41
2022/09/15 02:39:30;;;;;;;;;;;19.00;63.20;;;;;;5043286;27;88041;-41
2022/09/15 02:41:55;;;;;;;;;;;19.00;63.20;;;;;;5043020;28;88137;-41
2022/09/15 02:44:22;;;;;;;;;;;19.00;63.20;;;;;;5043580;27;87038;-41
2022/09/15 02:46:47;;;;;;;;;;;19.00;63.20;;;;;;5043570;27;89031;-40
2022/09/15 02:49:13;;;;;;;;;;;19.00;63.30;;;;;;5043191;27;87963;-41
2022/09/15 02:51:39;;;;;;;;;;;19.00;63.20;;;;;;5043627;28;87461;-41
2022/09/15 02:54:04;;;;;;;;;;;19.00;63.20;;;;;;5043620;27;87345;-41
2022/09/15 02:56:30;;;;;;;;;;;19.00;63.30;;;;;;5046388;27;87456;-41
2022/09/15 02:58:55;;;;;;;;;;;19.00;63.30;;;;;;5043191;27;88142;-40
2022/09/15 03:01:25;;;;;;;;;;;19.00;63.30;;;;;;5042941;28;88579;-41
2022/09/15 03:03:51;;;;;;;;;;;19.00;63.30;;;;;;5042297;27;88041;-41
2022/09/15 03:06:16;;;;;;;;;;;19.00;63.30;;;;;;5043156;28;88118;-41
2022/09/15 03:08:42;;;;;;;;;;;19.00;63.30;;;;;;4997798;27;1271030;-41
2022/09/15 03:11:09;;;;;;;;;;;18.90;63.30;;;;;;5044276;27;87033;-41
2022/09/15 03:13:34;;;;;;;;;;;18.90;63.20;;;;;;5043928;27;88653;-41
2022/09/15 03:16:05;;;;;;;;;;;18.90;63.30;;;;;;5043824;28;87336;-41
2022/09/15 03:18:30;;;;;;;;;;;18.90;63.30;;;;;;5047295;27;87052;-41
2022/09/15 03:20:56;;;;;;;;;;;18.90;63.20;;;;;;5044392;28;87429;-40
2022/09/15 03:23:21;;;;;;;;;;;18.90;63.30;;;;;;5043906;27;87094;-41
2022/09/15 03:25:47;;;;;;;;;;;18.90;63.30;;;;;;5044293;28;86958;-40
2022/09/15 03:28:13;;;;;;;;;;;18.90;63.30;;;;;;5043294;28;89054;-41
2022/09/15 03:30:39;;;;;;;;;;;18.90;63.30;;;;;;5044023;27;87546;-41
2022/09/15 03:33:04;;;;;;;;;;;18.90;63.30;;;;;;5044160;27;87072;-41
2022/09/15 03:35:30;;;;;;;;;;;18.90;63.30;;;;;;5043526;28;88127;-41
2022/09/15 03:37:55;;;;;;;;;;;18.90;63.30;;;;;;5042975;27;87213;-41
2022/09/15 03:40:21;;;;;;;;;;;18.90;63.30;;;;;;5046436;28;87992;-41
2022/09/15 03:42:46;;;;;;;;;;;18.90;63.30;;;;;;5044043;28;87209;-41
2022/09/15 03:45:12;;;;;;;;;;;18.90;63.30;;;;;;5044535;28;86563;-41
2022/09/15 03:47:37;;;;;;;;;;;18.90;63.30;;;;;;5043331;28;87894;-41
2022/09/15 03:50:03;;;;;;;;;;;18.80;63.30;;;;;;5043459;27;87112;-40
2022/09/15 03:52:30;;;;;;;;;;;18.90;63.40;;;;;;5043243;27;87987;-41
2022/09/15 03:54:55;;;;;;;;;;;18.80;63.40;;;;;;5043281;27;87986;-40
2022/09/15 03:57:21;;;;;;;;;;;18.80;63.40;;;;;;5043593;28;87106;-40
2022/09/15 03:59:46;;;;;;;;;;;18.80;63.30;;;;;;5043471;27;89310;-41
2022/09/15 04:02:13;;;;;;;;;;;18.80;63.30;;;;;;5045812;27;88277;-40
2022/09/15 04:04:38;;;;;;;;;;;18.80;63.30;;;;;;5043354;28;88671;-41
2022/09/15 04:07:04;;;;;;;;;;;18.80;63.30;;;;;;5043190;27;88028;-41
2022/09/15 04:09:30;;;;;;;;;;;18.80;63.40;;;;;;5043493;28;86266;-40
2022/09/15 04:11:55;;;;;;;;;;;18.80;63.40;;;;;;5043099;27;88340;-41
2022/09/15 04:14:21;;;;;;;;;;;18.80;63.40;;;;;;5043075;28;88519;-40
2022/09/15 04:16:46;;;;;;;;;;;18.70;63.40;;;;;;5042533;27;88196;-41
2022/09/15 04:19:12;;;;;;;;;;;18.70;63.40;;;;;;5043309;28;87780;-41
2022/09/15 04:21:38;;;;;;;;;;;18.70;63.40;;;;;;5042846;27;89424;-41
2022/09/15 04:24:04;;;;;;;;;;;18.80;63.40;;;;;;5046227;27;86946;-41
2022/09/15 04:26:34;;;;;;;;;;;18.70;63.30;;;;;;5042469;27;88309;-41
2022/09/15 04:29:00;;;;;;;;;;;18.70;63.40;;;;;;5043005;27;87084;-41
2022/09/15 04:31:26;;;;;;;;;;;18.70;63.40;;;;;;5042866;27;87181;-41
2022/09/15 04:33:52;;;;;;;;;;;18.70;63.40;;;;;;5043434;28;87369;-41
2022/09/15 04:36:20;;;;;;;;;;;18.70;63.50;;;;;;5042765;27;87064;-40
2022/09/15 04:38:45;;;;;;;;;;;18.60;63.40;;;;;;5043231;28;87453;-40
2022/09/15 04:41:12;;;;;;;;;;;18.60;63.40;;;;;;5041684;27;90261;-40
2022/09/15 04:43:38;;;;;;;;;;;18.60;63.50;;;;;;5045939;27;86939;-41
2022/09/15 04:46:04;;;;;;;;;;;18.60;63.50;;;;;;5042113;27;87586;-41
2022/09/15 04:48:30;;;;;;;;;;;18.60;63.40;;;;;;5042671;28;87197;-40
2022/09/15 04:51:06;;;;;;;;;;;18.60;63.40;;;;;;5042653;27;88265;-41
2022/09/15 04:53:32;;;;;;;;;;;18.60;63.40;;;;;;5042630;27;88009;-41
2022/09/15 04:56:05;;;;;;;;;;;18.60;63.40;;;;;;5042992;27;87151;-40
2022/09/15 04:58:34;;;;;;;;;;;18.60;63.50;;;;;;5043242;28;87817;-40
2022/09/15 05:01:05;;;;;;;;;;;18.60;63.50;;;;;;5042299;27;88155;-41
2022/09/15 05:03:33;;;;;;;;;;;18.60;63.50;;;;;;5043031;28;87008;-40
2022/09/15 05:05:59;;;;;;;;;;;18.60;63.50;;;;;;5044744;27;88024;-40
2022/09/15 05:08:24;;;;;;;;;;;18.60;63.60;;;;;;5042058;28;87129;-41
2022/09/15 05:10:50;;;;;;;;;;;18.50;63.50;;;;;;5042511;28;88051;-40
2022/09/15 05:13:15;;;;;;;;;;;18.60;63.50;;;;;;5041707;27;89440;-41
2022/09/15 05:15:41;;;;;;;;;;;18.50;63.40;;;;;;5042519;27;87157;-41
2022/09/15 05:18:07;;;;;;;;;;;18.50;63.50;;;;;;5042443;28;87547;-41
2022/09/15 05:20:32;;;;;;;;;;;18.60;63.50;;;;;;5041880;27;89346;-41
2022/09/15 05:22:58;;;;;;;;;;;18.50;63.40;;;;;;5042789;27;86376;-41
2022/09/15 05:25:23;;;;;;;;;;;18.50;63.50;;;;;;5042637;27;86944;-40
2022/09/15 05:27:49;;;;;;;;;;;18.50;63.50;;;;;;5044576;27;89326;-41
2022/09/15 05:30:14;;;;;;;;;;;18.50;63.40;;;;;;5041656;27;88756;-40
2022/09/15 05:32:40;;;;;;;;;;;18.50;63.50;;;;;;5041992;27;88102;-40
2022/09/15 05:35:06;;;;;;;;;;;18.60;63.40;;;;;;5042072;27;86953;-40
2022/09/15 05:37:32;;;;;;;;;;;18.60;63.40;;;;;;5041987;27;88746;-41
2022/09/15 05:39:58;;;;;;;;;;;18.60;63.30;;;;;;5042001;27;88300;-40
2022/09/15 05:42:23;;;;;;;;;;;18.50;63.40;;;;;;5042207;27;87224;-41
2022/09/15 05:44:49;;;;;;;;;;;18.60;63.40;;;;;;5042004;28;87502;-40
2022/09/15 05:47:15;;;;;;;;;;;18.50;63.40;;;;;;5042113;28;86635;-41
2022/09/15 05:49:41;;;;;;;;;;;18.60;63.40;;;;;;5044802;27;86899;-41
2022/09/15 05:52:06;;;;;;;;;;;18.60;63.50;;;;;;5041578;28;87165;-41
2022/09/15 05:54:32;;;;;;;;;;;18.50;63.50;;;;;;5041384;28;88040;-41
2022/09/15 05:56:57;;;;;;;;;;;18.50;63.50;;;;;;5042117;28;88338;-41
2022/09/15 05:59:23;;;;;;;;;;;18.50;63.50;;;;;;5041846;28;88049;-41
2022/09/15 06:01:48;;;;;;;;;;;18.60;63.50;;;;;;5043360;27;86788;-41
2022/09/15 06:04:14;;;;;;;;;;;18.50;63.50;;;;;;5045472;28;87461;-41
2022/09/15 06:06:39;;;;;;;;;;;18.50;63.50;;;;;;5045056;28;87895;-41
2022/09/15 06:09:05;;;;;;;;;;;18.60;63.50;;;;;;5044915;28;87179;-41
2022/09/15 06:11:32;;;;;;;;;;;18.50;63.50;;;;;;5048108;27;88687;-41
2022/09/15 06:13:58;;;;;;;;;;;18.50;63.50;;;;;;5045026;27;87159;-41
2022/09/15 06:16:25;;;;;;;;;;;18.50;63.50;;;;;;5045248;27;88904;-41
2022/09/15 06:18:51;;;;;;;;;;;18.50;63.50;;;;;;5044419;28;90187;-41
2022/09/15 06:21:21;;;;;;;;;;;18.60;63.60;;;;;;5045145;28;87109;-41
2022/09/15 06:24:00;;;;;;;;;;;18.60;63.60;;;;;;5045204;27;87315;-41
2022/09/15 06:26:26;;;;;;;;;;;18.60;63.60;;;;;;5044351;27;89333;-41
2022/09/15 06:28:56;;;;;;;;;;;18.50;63.50;;;;;;5045007;28;87082;-41
2022/09/15 06:31:22;;;;;;;;;;;18.60;63.80;;;;;;5047653;27;87415;-41
2022/09/15 06:33:52;;;;;;;;;;;18.60;63.60;;;;;;5044963;27;87020;-41
2022/09/15 06:36:18;;;;;;;;;;;18.60;63.50;;;;;;5045324;28;87415;-41
2022/09/15 06:38:44;;;;;;;;;;;18.60;63.40;;;;;;5044325;27;90601;-41
2022/09/15 06:41:10;;;;;;;;;;;18.60;63.40;;;;;;5044539;27;87020;-41
2022/09/15 06:43:35;;;;;;;;;;;18.60;63.40;;;;;;5044130;28;88019;-41
2022/09/15 06:46:02;;;;;;;;;;;18.60;63.40;;;;;;5044165;28;89409;-41
2022/09/15 06:48:28;;;;;;;;;;;18.60;63.40;;;;;;5044511;27;87187;-41
2022/09/15 06:50:54;;;;;;;;;;;18.60;63.30;;;;;;5044841;27;87430;-41
2022/09/15 06:53:20;;;;;;;;;;;18.70;63.40;;;;;;5047151;27;89033;-41
2022/09/15 06:55:46;;;;;;;;;;;18.60;63.40;;;;;;5044576;27;87338;-41
2022/09/15 06:58:11;;;;;;;;;;;18.60;63.40;;;;;;5042707;28;89669;-41
2022/09/15 07:00:37;;;;;;;;;;;18.70;63.40;;;;;;5044880;28;86378;-40
2022/09/15 07:03:02;;;;;;;;;;;18.70;63.30;;;;;;5044256;27;87271;-41
2022/09/15 07:05:28;;;;;;;;;;;18.70;63.30;;;;;;5044199;28;88150;-41
2022/09/15 07:07:54;;;;;;;;;;;18.70;63.30;;;;;;5043561;27;88036;-41
2022/09/15 07:10:19;;;;;;;;;;;18.70;63.30;;;;;;5044242;27;88199;-40
2022/09/15 07:12:45;;;;;;;;;;;18.70;63.20;;;;;;5042722;27;88074;-41
2022/09/15 07:15:10;;;;;;;;;;;18.70;63.20;;;;;;5046811;28;87055;-41
2022/09/15 07:17:36;;;;;;;;;;;18.70;63.20;;;;;;5043741;28;88126;-41
2022/09/15 07:20:01;;;;;;;;;;;18.70;63.30;;;;;;5043977;27;87179;-41
2022/09/15 07:22:27;;;;;;;;;;;18.70;63.30;;;;;;5044248;27;87239;-41
2022/09/15 07:24:52;;;;;;;;;;;18.70;63.30;;;;;;5044288;27;86604;-41
2022/09/15 07:27:18;;;;;;;;;;;18.80;63.30;;;;;;5043851;28;87030;-41
2022/09/15 07:29:44;;;;;;;;;;;18.70;63.30;;;;;;5044177;28;87546;-41
2022/09/15 07:32:09;;;;;;;;;;;18.70;63.30;;;;;;5043157;27;88748;-41
2022/09/15 07:34:35;;;;;;;;;;;18.80;63.40;;;;;;5042478;28;87208;-41
2022/09/15 07:37:01;;;;;;;;;;;18.70;63.30;;;;;;5046678;28;87709;-41
2022/09/15 07:39:27;;;;;;;;;;;18.80;63.40;;;;;;5043764;27;86982;-41
2022/09/15 07:41:53;;;;;;;;;;;18.80;63.40;;;;;;5043884;27;87408;-41
2022/09/15 07:44:18;;;;;;;;;;;18.80;63.40;;;;;;5043599;28;87867;-41
2022/09/15 07:46:44;;;;;;;;;;;18.80;63.50;;;;;;5043735;28;86996;-41
2022/09/15 07:49:09;;;;;;;;;;;18.80;63.50;;;;;;5044320;28;87451;-41
2022/09/15 07:51:35;;;;;;;;;;;18.80;63.40;;;;;;5043278;27;88574;-40
2022/09/15 07:54:00;;;;;;;;;;;18.80;63.50;;;;;;5043863;27;87179;-41
2022/09/15 07:56:26;;;;;;;;;;;18.80;63.50;;;;;;5042805;27;88008;-41
2022/09/15 07:58:51;;;;;;;;;;;18.90;63.50;;;;;;5046344;28;88106;-41
2022/09/15 08:01:17;;;;;;;;;;;18.80;63.50;;;;;;5043803;28;88005;-41
2022/09/15 08:03:50;;;;;;;;;;;18.90;63.60;;;;;;5043209;27;88063;-41
2022/09/15 08:06:16;;;;;;;;;;;18.90;63.60;;;;;;5043415;28;86936;-41
2022/09/15 08:08:45;;;;;;;;;;;18.90;63.60;;;;;;5043105;27;87072;-41
2022/09/15 08:11:13;;;;;;;;;;;18.90;63.60;;;;;;5042909;27;87945;-41
2022/09/15 08:13:39;;;;;;;;;;;18.90;63.50;;;;;;5043741;28;86452;-41
2022/09/15 08:16:09;;;;;;;;;;;18.80;63.50;;;;;;5043418;27;87029;-41
2022/09/15 08:18:35;;;;;;;;;;;18.90;63.60;;;;;;5042823;27;87917;-41
2022/09/15 08:21:08;;;;;;;;;;;18.90;63.50;;;;;;5045739;27;88021;-41
2022/09/15 08:23:33;;;;;;;;;;;18.90;63.50;;;;;;5042873;27;89599;-41
2022/09/15 08:25:59;;;;;;;;;;;18.90;63.60;;;;;;5042859;27;87096;-41
2022/09/15 08:28:25;;;;;;;;;;;18.90;63.60;;;;;;5043117;28;87084;-41
2022/09/15 08:30:58;;;;;;;;;;;18.90;63.60;;;;;;5042528;27;89604;-40
2022/09/15 08:33:24;;;;;;;;;;;18.90;63.60;;;;;;5043057;27;87149;-41
2022/09/15 08:35:50;;;;;;;;;;;19.00;63.70;;;;;;5042810;27;88635;-41
2022/09/15 08:38:15;;;;;;;;;;;19.00;63.70;;;;;;5043031;28;87445;-41
2022/09/15 08:40:42;;;;;;;;;;;19.00;63.60;;;;;;5046065;28;87219;-40
2022/09/15 08:43:14;;;;;;;;;;;19.00;63.90;;;;;;5042486;27;87999;-41
2022/09/15 08:45:48;;;;;;;;;;;19.00;63.70;;;;;;5042113;28;88244;-41
2022/09/15 08:48:15;;;;;;;;;;;19.00;63.70;;;;;;5042914;27;88224;-41
2022/09/15 08:50:43;;;;;;;;;;;19.00;63.80;;;;;;5042301;28;87984;-41
2022/09/15 08:53:10;;;;;;;;;;;19.00;63.80;;;;;;5042835;27;87324;-41
2022/09/15 08:55:51;;;;;;;;;;;19.10;63.80;;;;;;5042560;28;88949;-41
2022/09/15 08:58:18;;;;;;;;;;;19.10;63.80;;;;;;5042357;28;87995;-41
2022/09/15 09:00:45;;;;;;;;;;;19.10;63.80;;;;;;5042776;27;87066;-41
2022/09/15 09:03:30;;;;;;;;;;;19.10;63.60;;;;;;5045608;28;89079;-40
2022/09/15 09:06:09;;;;;;;;;;;19.10;63.70;;;;;;5042829;27;86876;-41
2022/09/15 09:08:43;;;;;;;;;;;19.20;63.80;;;;;;5042450;27;87571;-41
2022/09/15 09:11:19;;;;;;;;;;;19.20;63.70;;;;;;5041591;28;88283;-41
2022/09/15 09:13:44;;;;;;;;;;;19.20;63.70;;;;;;5041805;27;87102;-40
2022/09/15 09:16:19;;;;;;;;;;;19.20;63.70;;;;;;5042693;27;87394;-41
2022/09/15 09:18:47;;;;;;;;;;;19.20;63.90;;;;;;5042352;28;88033;-41
2022/09/15 09:21:13;;;;;;;;;;;19.20;63.60;;;;;;5042147;27;87090;-41
2022/09/15 09:23:44;;;;;;;;;;;19.30;63.70;;;;;;5042385;28;86945;-41
2022/09/15 09:26:10;;;;;;;;;;;19.30;63.60;;;;;;5045116;28;88136;-41
2022/09/15 09:28:43;;;;;;;;;;;19.30;63.70;;;;;;5042919;27;87354;-41
2022/09/15 09:31:14;;;;;;;;;;;19.30;63.60;;;;;;5041943;27;88243;-41
2022/09/15 09:33:44;;;;;;;;;;;19.40;63.60;;;;;;5042127;28;87026;-41
2022/09/15 09:36:10;;;;;;;;;;;19.40;63.90;;;;;;5040411;27;90468;-41
2022/09/15 09:38:40;;;;;;;;;;;19.40;63.60;;;;;;5045251;27;89154;-41
2022/09/15 09:41:13;;;;;;;;;;;19.40;63.70;;;;;;5045503;27;87092;-41
2022/09/15 09:43:41;;;;;;;;;;;19.40;63.70;;;;;;5045641;27;88776;-41
2022/09/15 09:46:15;;;;;;;;;;;19.50;63.90;;;;;;5045285;27;87935;-41
2022/09/15 09:48:53;;;;;;;;;;;19.50;63.90;;;;;;5048475;27;87089;-41
2022/09/15 09:51:30;;;;;;;;;;;19.50;63.80;;;;;;5045307;27;88124;-41
2022/09/15 09:53:55;;;;;;;;;;;19.50;63.90;;;;;;5045981;27;86330;-41
2022/09/15 09:56:24;;;;;;;;;;;19.60;63.90;;;;;;5045621;27;87118;-41
2022/09/15 09:58:51;;;;;;;;;;;19.60;63.60;;;;;;5045345;27;87198;-41
2022/09/15 10:01:18;;;;;;;;;;;19.60;64.10;;;;;;5044625;27;88016;-41
2022/09/15 10:03:44;;;;;;;;;;;19.60;63.80;;;;;;5045112;27;89651;-41
2022/09/15 10:06:14;;;;;;;;;;;19.70;63.60;;;;;;5045051;27;89394;-41
2022/09/15 10:09:07;;;;;;;;;;;19.60;63.60;;;;;;5044595;27;87493;-41
2022/09/15 10:11:41;;;;;;;;;;;19.70;63.90;;;;;;5047986;27;86981;-40
2022/09/15 10:14:14;;;;;;;;;;;19.70;64.20;;;;;;5044827;27;87168;-41
2022/09/15 10:16:40;;;;;;;;;;;19.70;63.80;;;;;;5045260;28;88789;-41
2022/09/15 10:19:10;;;;;;;;;;;19.70;64.00;;;;;;5045583;28;87465;-41
2022/09/15 10:21:37;;;;;;;;;;;19.70;63.70;;;;;;5044882;27;87103;-41
2022/09/15 10:24:21;;;;;;;;;;;19.80;63.80;;;;;;5045261;28;86954;-41
2022/09/15 10:26:47;;;;;;;;;;;19.80;63.80;;;;;;5043884;27;89107;-41
2022/09/15 10:29:14;;;;;;;;;;;19.80;64.00;;;;;;5045080;28;87264;-41
2022/09/15 10:31:40;;;;;;;;;;;19.90;63.70;;;;;;5045052;28;87426;-41
2022/09/15 10:34:24;;;;;;;;;;;19.90;63.70;;;;;;5047611;27;88281;-41
2022/09/15 10:36:51;;;;;;;;;;;19.90;63.70;;;;;;5044779;28;88742;-41
2022/09/15 10:39:17;;;;;;;;;;;19.90;63.80;;;;;;5044541;28;88175;-41
2022/09/15 10:42:03;;;;;;;;;;;20.00;63.70;;;;;;5044853;27;87131;-40
2022/09/15 10:44:56;;;;;;;;;;;20.00;63.60;;;;;;5022811;27;90511;-41
2022/09/15 10:47:21;;;;;;;;;;;20.00;63.60;;;;;;5043946;27;89515;-41
2022/09/15 10:50:07;;;;;;;;;;;20.10;63.80;;;;;;5044659;27;87035;-41
2022/09/15 10:52:40;;;;;;;;;;;20.10;63.60;;;;;;5022003;27;88445;-41
2022/09/15 10:55:14;;;;;;;;;;;20.10;63.70;;;;;;5047477;27;87970;-41
2022/09/15 10:57:58;;;;;;;;;;;20.20;63.80;;;;;;5044740;28;87432;-40
2022/09/15 11:00:25;;;;;;;;;;;20.20;63.80;;;;;;5044246;27;87911;-41
2022/09/15 11:03:09;;;;;;;;;;;20.20;63.50;;;;;;5044507;27;87097;-40
2022/09/15 11:05:47;;;;;;;;;;;20.20;63.70;;;;;;5044594;27;87670;-41
2022/09/15 11:08:17;;;;;;;;;;;20.30;63.90;;;;;;5043516;27;89831;-41
2022/09/15 11:10:52;;;;;;;;;;;20.30;64.00;;;;;;5045106;27;86132;-40
2022/09/15 11:13:20;;;;;;;;;;;20.30;63.90;;;;;;5044260;28;86988;-40
2022/09/15 11:16:10;;;;;;;;;;;20.30;63.90;;;;;;5044175;28;87967;-40
2022/09/15 11:18:39;;;;;;;;;;;20.40;64.00;;;;;;5046440;28;88037;-40
2022/09/15 11:21:13;;;;;;;;;;;20.40;63.90;;;;;;5043379;28;89084;-40
2022/09/15 11:23:40;;;;;;;;;;;20.40;64.00;;;;;;5044295;27;87116;-40
2022/09/15 11:26:09;;;;;;;;;;;20.40;63.90;;;;;;5044180;27;87696;-40
2022/09/15 11:28:42;;;;;;;;;;;20.40;64.00;;;;;;5043619;28;88088;-40
2022/09/15 11:31:28;;;;;;;;;;;20.50;63.90;;;;;;5044182;27;87173;-40
2022/09/15 11:34:00;;;;;;;;;;;20.50;63.90;;;;;;5044153;28;87461;-40
2022/09/15 11:36:32;;;;;;;;;;;20.50;63.90;;;;;;5044086;27;87342;-40
2022/09/15 11:39:20;;;;;;;;;;;20.50;64.00;;;;;;5043684;27;87052;-41
2022/09/15 11:42:07;;;;;;;;;;;20.60;63.90;;;;;;5046474;27;88816;-40
2022/09/15 11:44:37;;;;;;;;;;;20.60;63.80;;;;;;5043499;27;87879;-41
2022/09/15 11:47:03;;;;;;;;;;;20.60;63.80;;;;;;5043792;28;88391;-40
2022/09/15 11:49:42;;;;;;;;;;;20.70;63.90;;;;;;5043332;28;88697;-40
2022/09/15 11:52:07;;;;;;;;;;;20.60;63.90;;;;;;5043622;27;87152;-40
2022/09/15 11:54:36;;;;;;;;;;;20.70;64.00;;;;;;5043699;28;87436;-40
2022/09/15 11:57:02;;;;;;;;;;;20.70;63.80;;;;;;5043015;27;87985;-40
2022/09/15 11:59:33;;;;;;;;;;;20.80;63.90;;;;;;5042823;27;87411;-40
2022/09/15 12:02:07;;;;;;;;;;;20.70;63.70;;;;;;5043910;27;88628;-40
2022/09/15 12:04:41;;;;;;;;;;;20.70;63.80;;;;;;5046181;28;87908;-40
2022/09/15 12:07:19;;;;;;;;;;;20.80;63.70;;;;;;5043410;27;87615;-40
2022/09/15 12:09:47;;;;;;;;;;;20.80;63.80;;;;;;5041935;27;88807;-40
2022/09/15 12:12:14;;;;;;;;;;;20.80;63.70;;;;;;5043443;27;87001;-40
2022/09/15 12:14:41;;;;;;;;;;;20.90;63.70;;;;;;5042789;27;88752;-40
2022/09/15 12:17:11;;;;;;;;;;;20.90;63.90;;;;;;5042825;27;89218;-40
2022/09/15 12:19:40;;;;;;;;;;;20.90;63.70;;;;;;5043016;28;86983;-40
2022/09/15 12:22:09;;;;;;;;;;;20.90;63.70;;;;;;5042918;27;88565;-40
2022/09/15 12:24:38;;;;;;;;;;;21.00;63.70;;;;;;5042693;27;88567;-40
2022/09/15 12:27:03;;;;;;;;;;;21.00;63.60;;;;;;5046896;27;87302;-40
2022/09/15 12:29:38;;;;;;;;;;;21.00;63.60;;;;;;5042957;28;88072;-40
2022/09/15 12:32:22;;;;;;;;;;;21.10;63.70;;;;;;5043027;27;86979;-40
2022/09/15 12:34:53;;;;;;;;;;;21.10;63.60;;;;;;5042418;28;88989;-40
2022/09/15 12:37:19;;;;;;;;;;;21.10;63.60;;;;;;5042786;28;89068;-40
2022/09/15 12:39:45;;;;;;;;;;;21.20;63.40;;;;;;5043419;28;87262;-40
2022/09/15 12:42:11;;;;;;;;;;;21.10;64.10;;;;;;5042931;27;87383;-40
2022/09/15 12:44:36;;;;;;;;;;;21.30;63.50;;;;;;5042830;28;87994;-40
2022/09/15 12:47:04;;;;;;;;;;;21.20;63.30;;;;;;5042616;27;87050;-40
2022/09/15 12:49:32;;;;;;;;;;;21.30;63.50;;;;;;5045522;28;87381;-40
2022/09/15 12:51:59;;;;;;;;;;;21.30;63.50;;;;;;5043188;27;86305;-40
2022/09/15 12:54:32;;;;;;;;;;;21.30;63.40;;;;;;5042852;28;88070;-40
2022/09/15 12:56:58;;;;;;;;;;;21.30;63.40;;;;;;5042424;27;86870;-40
2022/09/15 12:59:25;;;;;;;;;;;21.30;63.40;;;;;;5041637;27;88024;-40
2022/09/15 13:01:51;;;;;;;;;;;21.30;63.40;;;;;;5042651;27;89958;-41
2022/09/15 13:04:25;;;;;;;;;;;21.40;63.40;;;;;;5042446;28;88065;-40
2022/09/15 13:07:09;;;;;;;;;;;21.50;63.40;;;;;;5042566;27;87030;-40
2022/09/15 13:09:54;;;;;;;;;;;21.50;63.40;;;;;;5044646;27;87445;-40
2022/09/15 13:12:20;;;;;;;;;;;21.50;63.50;;;;;;5046031;27;87017;-40
2022/09/15 13:14:48;;;;;;;;;;;21.50;63.40;;;;;;5046195;27;87427;-40
2022/09/15 13:17:15;;;;;;;;;;;21.60;63.50;;;;;;5046164;27;88556;-41
2022/09/15 13:19:45;;;;;;;;;;;21.60;63.50;;;;;;5046049;27;87089;-40
2022/09/15 13:22:10;;;;;;;;;;;21.60;63.50;;;;;;5045940;27;88725;-40
2022/09/15 13:25:05;;;;;;;;;;;21.60;63.40;;;;;;5044812;28;89030;-40
2022/09/15 13:27:37;;;;;;;;;;;21.70;63.40;;;;;;5036059;28;86991;-40
2022/09/15 13:30:21;;;;;;;;;;;21.70;63.40;;;;;;5046121;28;87372;-40
2022/09/15 13:33:09;;;;;;;;;;;21.70;63.40;;;;;;5048589;27;87834;-40
2022/09/15 13:35:49;;;;;;;;;;;21.80;63.40;;;;;;5046121;28;87480;-40
2022/09/15 13:38:33;;;;;;;;;;;21.80;63.30;;;;;;5045586;28;88244;-40
2022/09/15 13:41:01;;;;;;;;;;;21.80;63.40;;;;;;5045876;27;87196;-40
2022/09/15 13:43:30;;;;;;;;;;;21.80;63.40;;;;;;5046176;28;87479;-40
2022/09/15 13:46:11;;;;;;;;;;;21.90;63.50;;;;;;5045411;28;88049;-40
2022/09/15 13:48:55;;;;;;;;;;;21.90;63.50;;;;;;5045673;28;86950;-40
2022/09/15 13:51:26;;;;;;;;;;;21.90;63.50;;;;;;5045304;27;88134;-40
2022/09/15 13:53:54;;;;;;;;;;;21.90;63.50;;;;;;5045225;27;88326;-40
2022/09/15 13:56:23;;;;;;;;;;;22.00;63.60;;;;;;5048846;28;87597;-40
2022/09/15 13:58:48;;;;;;;;;;;22.00;63.60;;;;;;5045238;27;87987;-40
2022/09/15 14:01:18;;;;;;;;;;;22.00;63.40;;;;;;5045295;27;87093;-40
2022/09/15 14:04:02;;;;;;;;;;;22.00;63.50;;;;;;5045248;28;87574;-41
2022/09/15 14:06:32;;;;;;;;;;;22.10;63.60;;;;;;5044885;27;87833;-40
2022/09/15 14:09:09;;;;;;;;;;;22.10;63.50;;;;;;5045376;27;86379;-40
2022/09/15 14:11:36;;;;;;;;;;;22.10;63.50;;;;;;5045666;27;86962;-40
2022/09/15 14:14:03;;;;;;;;;;;22.10;63.40;;;;;;5044907;27;87957;-41
2022/09/15 14:16:32;;;;;;;;;;;22.20;63.40;;;;;;5044604;27;88598;-40
2022/09/15 14:18:58;;;;;;;;;;;22.20;63.30;;;;;;5047351;28;88489;-40
2022/09/15 14:21:28;;;;;;;;;;;22.20;63.90;;;;;;5045371;27;87095;-40
2022/09/15 14:23:55;;;;;;;;;;;22.20;63.30;;;;;;5044677;27;87227;-40
2022/09/15 14:26:25;;;;;;;;;;;22.30;63.20;;;;;;5044739;27;88277;-41
2022/09/15 14:28:55;;;;;;;;;;;22.30;63.20;;;;;;5045049;27;87105;-40